MAPA DE AEROPUERTO

INFORMACIÓN METAR y TAF

METAR FOR TNCM
ADDS - METARS form results

(1543 UTC 07 May 2021)
Data provider http://aviationweather.gov/metar/data/
 
METAR text: TNCM 071500Z 08010KT 060V120 9999 FEW018 29/20 Q1019 NOSIG
Conditions at: TNCM (ST MAARTEN JULIA, VI) observed 1500 UTC 07 May 2021
Temperature: 29.0°C (84°F)
Dewpoint: 20.0°C (68°F) [RH = 58%]
Pressure (altimeter): 30.09 inches Hg (1019.0 mb)
Winds: from the E (80 degrees) at 12 MPH (10 knots; 5.1 m/s)
Visibility: 6 or more miles (10+ km)
Ceiling: at least 12,000 feet AGL
Clouds: few clouds at 1800 feet AGL
Weather: no significant weather observed at this time

Forecast for: TNCM (ST MAARTEN JULIA, VI)
Text: TNCM 071137Z 0712/0812 10011KT P6SM FEW018 FEW020
Forecast period: 1200 UTC 07 May 2021 to 1200 UTC 08 May 2021
Forecast type: FROM: standard forecast or significant change
Winds: from the E (100 degrees) at 13 MPH (11 knots; 5.7 m/s)
Visibility: 6 or more miles (10+ km)
Ceiling: at least 12,000 feet AGL
Clouds: few clouds at 1800 feet AGL
few clouds at 2000 feet AGL
Weather: no significant weather forecast for this period